createdAt,value
2018-08-17T00:00:56.979Z,53.30
2018-08-17T00:03:25.894Z,53.40
2018-08-17T00:05:54.675Z,52.00
2018-08-17T00:08:23.391Z,53.00
2018-08-17T00:10:52.094Z,52.80
2018-08-17T00:13:20.817Z,52.60
2018-08-17T00:15:49.701Z,52.00
2018-08-17T00:18:18.437Z,51.30
2018-08-17T00:20:47.354Z,52.70
2018-08-17T00:23:16.234Z,52.60
2018-08-17T00:25:45.118Z,52.20
2018-08-17T00:28:13.943Z,52.40
2018-08-17T00:30:42.862Z,52.60
2018-08-17T00:33:11.629Z,53.40
2018-08-17T00:35:42.385Z,53.10
2018-08-17T00:38:11.290Z,52.90
2018-08-17T00:40:40.024Z,52.90
2018-08-17T00:43:08.661Z,52.50
2018-08-17T00:45:37.429Z,53.10
2018-08-17T00:48:06.453Z,52.80
2018-08-17T00:50:35.397Z,53.60
2018-08-17T00:53:04.098Z,53.90
2018-08-17T00:55:32.818Z,54.30
2018-08-17T00:58:01.433Z,54.30
2018-08-17T01:00:30.146Z,54.40
2018-08-17T01:02:58.838Z,54.70
2018-08-17T01:05:27.510Z,54.40
2018-08-17T01:07:56.179Z,53.70
2018-08-17T01:10:25.015Z,53.70
2018-08-17T01:12:53.707Z,53.30
2018-08-17T01:15:22.387Z,53.40
2018-08-17T01:17:51.174Z,53.30
2018-08-17T01:20:20.011Z,53.10
2018-08-17T01:22:48.688Z,53.20
2018-08-17T01:25:17.285Z,53.30
2018-08-17T01:27:45.858Z,53.40
2018-08-17T01:30:14.968Z,53.80
2018-08-17T01:32:43.944Z,53.80
2018-08-17T01:35:12.743Z,53.80
2018-08-17T01:37:41.491Z,53.80
2018-08-17T01:40:10.217Z,54.00
2018-08-17T01:42:39.068Z,54.10
2018-08-17T01:45:07.824Z,54.50
2018-08-17T01:47:36.547Z,54.70
2018-08-17T01:50:07.063Z,55.00
2018-08-17T01:52:35.635Z,55.10
2018-08-17T01:55:07.475Z,55.80
2018-08-17T01:57:36.517Z,55.90
2018-08-17T02:00:07.535Z,56.30
2018-08-17T02:02:38.159Z,56.20
2018-08-17T02:05:07.350Z,55.90
2018-08-17T02:07:36.539Z,56.20
2018-08-17T02:10:06.909Z,56.00
2018-08-17T02:12:35.556Z,55.70
2018-08-17T02:15:04.738Z,55.40
2018-08-17T02:17:33.533Z,55.50
2018-08-17T02:20:02.186Z,55.30
2018-08-17T02:22:30.866Z,57.20
2018-08-17T02:24:59.671Z,58.40
2018-08-17T02:27:28.370Z,58.60
2018-08-17T02:29:59.254Z,59.50
2018-08-17T02:32:28.080Z,60.60
2018-08-17T02:34:57.050Z,62.10
2018-08-17T02:37:26.077Z,63.50
2018-08-17T02:39:54.867Z,64.00
2018-08-17T02:42:23.699Z,63.80
2018-08-17T02:44:52.610Z,60.30
2018-08-17T02:47:21.521Z,61.20
2018-08-17T02:49:51.624Z,62.30
2018-08-17T02:52:20.330Z,62.20
2018-08-17T02:54:49.095Z,63.60
2018-08-17T02:57:18.001Z,64.00
2018-08-17T02:59:46.849Z,64.00
2018-08-17T03:02:15.497Z,64.90
2018-08-17T03:04:44.134Z,64.80
2018-08-17T03:07:12.843Z,65.20
2018-08-17T03:09:41.586Z,64.80
2018-08-17T03:12:12.438Z,65.10
2018-08-17T03:14:41.096Z,65.00
2018-08-17T03:17:09.911Z,64.50
2018-08-17T03:19:38.858Z,65.10
2018-08-17T03:22:07.782Z,64.90
2018-08-17T03:24:36.486Z,64.50
2018-08-17T03:27:05.469Z,64.10
2018-08-17T03:29:34.187Z,64.20
2018-08-17T03:32:03.086Z,65.20
2018-08-17T03:34:33.831Z,64.30
2018-08-17T03:37:02.628Z,64.80
2018-08-17T03:39:31.494Z,64.30
2018-08-17T03:42:00.310Z,64.60
2018-08-17T03:44:30.400Z,62.90
2018-08-17T03:46:59.104Z,65.40
2018-08-17T03:49:27.996Z,65.40
2018-08-17T03:51:56.765Z,66.90
2018-08-17T03:54:25.520Z,68.40
2018-08-17T03:56:54.284Z,68.80
2018-08-17T03:59:23.185Z,68.70
2018-08-17T04:01:52.049Z,69.00
2018-08-17T04:04:20.720Z,68.90
2018-08-17T04:06:49.386Z,68.80
2018-08-17T04:09:18.077Z,68.30
2018-08-17T04:11:46.761Z,67.70
2018-08-17T04:14:16.752Z,68.00
2018-08-17T04:16:45.449Z,68.90
2018-08-17T04:19:14.315Z,67.70
2018-08-17T04:21:43.397Z,67.60
2018-08-17T04:24:12.102Z,68.90
2018-08-17T04:26:40.881Z,67.20
2018-08-17T04:29:09.648Z,68.60
2018-08-17T04:31:38.616Z,67.80
2018-08-17T04:34:10.753Z,68.70
2018-08-17T04:36:39.638Z,68.70
2018-08-17T04:39:08.355Z,68.70
2018-08-17T04:41:38.130Z,68.30
2018-08-17T04:44:06.866Z,67.90
2018-08-17T04:46:35.522Z,67.70
2018-08-17T04:49:04.259Z,68.10
2018-08-17T04:53:02.806Z,67.00
2018-08-17T04:55:31.574Z,68.70
2018-08-17T04:58:00.253Z,69.00
2018-08-17T05:00:28.939Z,68.80
2018-08-17T05:02:57.609Z,68.80
2018-08-17T05:05:26.263Z,67.60
2018-08-17T05:07:57.183Z,68.40
2018-08-17T05:10:25.979Z,68.40
2018-08-17T05:12:54.621Z,68.60
2018-08-17T05:15:23.290Z,68.50
2018-08-17T05:17:51.989Z,68.10
2018-08-17T05:20:20.750Z,67.50
2018-08-17T05:22:49.666Z,69.60
2018-08-17T05:25:18.429Z,67.20
2018-08-17T05:27:47.091Z,66.60
2018-08-17T05:30:18.042Z,67.50
2018-08-17T05:32:47.989Z,67.80
2018-08-17T05:35:16.881Z,67.80
2018-08-17T05:37:45.733Z,68.40
2018-08-17T05:40:14.451Z,67.90
2018-08-17T05:42:43.115Z,68.30
2018-08-17T05:45:44.399Z,67.00
2018-08-17T05:48:13.080Z,67.00
2018-08-17T05:50:42.417Z,67.50
2018-08-17T05:53:11.086Z,66.30
2018-08-17T05:55:39.837Z,65.80
2018-08-17T05:58:08.530Z,66.10
2018-08-17T06:00:37.204Z,65.80
2018-08-17T06:03:07.307Z,65.80
2018-08-17T06:05:36.216Z,65.50
2018-08-17T06:08:07.165Z,65.10
2018-08-17T06:10:35.867Z,65.10
2018-08-17T06:13:04.761Z,64.90
2018-08-17T06:15:33.467Z,64.80
2018-08-17T06:18:05.214Z,64.90
2018-08-17T06:20:33.879Z,63.60
2018-08-17T06:23:02.616Z,64.00
2018-08-17T06:25:31.385Z,64.20
2018-08-17T06:28:00.258Z,62.70
2018-08-17T06:30:28.913Z,63.20
2018-08-17T06:32:59.517Z,62.70
2018-08-17T06:35:28.272Z,62.80
2018-08-17T06:37:56.934Z,62.10
2018-08-17T06:40:25.724Z,61.60
2018-08-17T06:42:54.412Z,61.30
2018-08-17T06:45:23.698Z,60.90
2018-08-17T06:47:52.369Z,60.00
2018-08-17T06:50:21.203Z,59.40
2018-08-17T06:52:50.060Z,59.10
2018-08-17T06:55:18.938Z,58.80
2018-08-17T06:57:47.827Z,58.80
2018-08-17T07:00:17.014Z,58.90
2018-08-17T07:02:46.787Z,58.50
2018-08-17T07:05:15.744Z,58.80
2018-08-17T07:07:44.508Z,58.80
2018-08-17T07:10:14.166Z,58.50
2018-08-17T07:12:43.333Z,58.20
2018-08-17T07:15:12.462Z,57.90
2018-08-17T07:17:41.760Z,60.10
2018-08-17T07:20:12.742Z,60.00
2018-08-17T07:22:44.054Z,60.50
2018-08-17T07:25:17.482Z,60.60
2018-08-17T07:27:50.869Z,61.00
2018-08-17T07:30:25.298Z,59.60
2018-08-17T07:33:00.964Z,59.70
2018-08-17T07:35:30.004Z,59.60
2018-08-17T07:37:58.798Z,59.30
2018-08-17T07:40:27.468Z,58.10
2018-08-17T07:42:57.244Z,57.40
2018-08-17T07:45:27.448Z,57.00
2018-08-17T07:47:56.184Z,56.10
2018-08-17T07:50:26.233Z,55.50
2018-08-17T07:52:57.694Z,54.20
2018-08-17T07:55:26.819Z,53.30
2018-08-17T07:57:55.466Z,52.20
2018-08-17T08:00:24.296Z,52.70
2018-08-17T08:02:53.243Z,52.40
2018-08-17T08:05:21.972Z,52.60
2018-08-17T08:07:50.739Z,51.50
2018-08-17T08:10:19.458Z,50.20
2018-08-17T08:12:49.933Z,51.20
2018-08-17T08:15:18.629Z,50.20
2018-08-17T08:17:47.338Z,50.50
2018-08-17T08:20:28.455Z,50.20
2018-08-17T08:23:08.615Z,49.60
2018-08-17T08:25:37.318Z,48.80
2018-08-17T08:28:06.148Z,48.70
2018-08-17T08:30:35.023Z,48.40
2018-08-17T08:33:04.033Z,47.70
2018-08-17T08:35:32.718Z,46.60
2018-08-17T08:38:01.625Z,47.20
2018-08-17T08:40:30.489Z,46.80
2018-08-17T08:42:59.219Z,46.30
2018-08-17T08:45:27.963Z,47.10
2018-08-17T08:47:56.684Z,46.00
2018-08-17T08:50:25.361Z,45.90
2018-08-17T08:52:54.113Z,46.00
2018-08-17T08:55:22.818Z,45.30
2018-08-17T08:57:51.455Z,45.40
2018-08-17T09:00:20.199Z,45.00
2018-08-17T09:02:52.051Z,45.00
2018-08-17T09:05:20.725Z,45.60
2018-08-17T09:07:49.474Z,45.90
2018-08-17T09:10:18.253Z,45.50
2018-08-17T09:12:46.938Z,45.30
2018-08-17T09:15:15.731Z,45.70
2018-08-17T09:17:44.662Z,46.10
2018-08-17T09:20:15.465Z,46.70
2018-08-17T09:22:44.462Z,46.90
2018-08-17T09:25:13.506Z,46.70
2018-08-17T09:27:42.351Z,46.50
2018-08-17T09:30:12.853Z,46.10
2018-08-17T09:32:41.864Z,46.40
2018-08-17T09:35:12.026Z,45.70
2018-08-17T09:37:40.731Z,45.80
2018-08-17T09:40:10.322Z,45.00
2018-08-17T09:42:39.053Z,44.80
2018-08-17T09:45:10.402Z,44.40
2018-08-17T09:47:46.514Z,44.10
2018-08-17T09:50:23.228Z,42.90
2018-08-17T09:52:52.124Z,44.00
2018-08-17T09:55:21.040Z,43.60
2018-08-17T09:57:49.716Z,43.70
2018-08-17T10:00:18.451Z,43.50
2018-08-17T10:02:52.339Z,43.40
2018-08-17T10:05:26.162Z,42.90
2018-08-17T10:08:00.187Z,43.30
2018-08-17T10:10:28.874Z,42.90
2018-08-17T10:12:57.634Z,43.10
2018-08-17T10:15:26.529Z,42.10
2018-08-17T10:17:55.154Z,41.60
2018-08-17T10:20:24.790Z,41.10
2018-08-17T10:22:53.530Z,40.80
2018-08-17T10:25:23.463Z,40.10
2018-08-17T10:27:53.426Z,38.70
2018-08-17T10:30:22.746Z,38.10
2018-08-17T10:32:56.745Z,37.80
2018-08-17T10:35:26.862Z,36.70
2018-08-17T10:37:56.863Z,34.30
2018-08-17T10:40:26.053Z,33.30
2018-08-17T10:42:54.902Z,32.50
2018-08-17T10:45:24.485Z,32.30
2018-08-17T10:47:53.599Z,31.50
2018-08-17T10:50:23.611Z,29.20
2018-08-17T10:52:53.454Z,28.60
2018-08-17T10:55:23.521Z,28.20
2018-08-17T10:57:52.298Z,29.40
2018-08-17T11:00:22.250Z,30.30
2018-08-17T11:02:51.151Z,29.60
2018-08-17T11:05:20.835Z,28.30
2018-08-17T11:07:49.739Z,33.10
2018-08-17T11:10:18.503Z,32.90
2018-08-17T11:12:47.798Z,30.00
2018-08-17T11:15:16.554Z,28.70
2018-08-17T11:17:45.947Z,29.00
2018-08-17T11:20:19.545Z,27.70
2018-08-17T11:22:48.232Z,26.90
2018-08-17T11:25:17.059Z,29.00
2018-08-17T11:27:45.944Z,28.50
2018-08-17T11:30:15.300Z,28.20
2018-08-17T11:32:44.056Z,26.60
2018-08-17T11:35:12.842Z,26.30
2018-08-17T11:37:41.693Z,25.90
2018-08-17T11:40:15.474Z,26.40
2018-08-17T11:42:49.099Z,26.20
2018-08-17T11:45:21.744Z,25.00
2018-08-17T11:47:50.861Z,24.30
2018-08-17T11:50:22.329Z,24.70
2018-08-17T11:52:56.328Z,24.90
2018-08-17T11:55:26.155Z,25.40
2018-08-17T11:57:55.023Z,24.50
2018-08-17T12:00:24.139Z,24.10
2018-08-17T12:02:52.961Z,23.80
2018-08-17T12:05:21.892Z,24.50
2018-08-17T12:07:50.921Z,27.60
2018-08-17T12:10:20.055Z,27.20
2018-08-17T12:12:48.346Z,27.60
2018-08-17T12:15:17.147Z,28.40
2018-08-17T12:17:45.825Z,26.80
2018-08-17T12:20:14.598Z,26.20
2018-08-17T12:22:43.409Z,25.00
2018-08-17T12:25:12.173Z,24.60
2018-08-17T12:27:46.827Z,24.30
2018-08-17T12:30:15.609Z,24.90
2018-08-17T12:32:44.326Z,24.50
2018-08-17T12:35:13.067Z,24.30
2018-08-17T12:37:42.328Z,24.30
2018-08-17T12:40:11.443Z,23.60
2018-08-17T12:42:40.153Z,23.80
2018-08-17T12:45:15.214Z,23.80
2018-08-17T12:47:44.152Z,23.50
2018-08-17T12:50:12.788Z,22.90
2018-08-17T12:52:41.550Z,23.10
2018-08-17T12:55:10.274Z,23.20
2018-08-17T12:57:40.851Z,23.50
2018-08-17T13:00:09.863Z,24.20
2018-08-17T13:02:38.567Z,24.40
2018-08-17T13:05:07.356Z,24.10
2018-08-17T13:07:36.660Z,23.70
2018-08-17T13:10:06.666Z,24.00
2018-08-17T13:12:35.411Z,24.00
2018-08-17T13:15:04.487Z,23.90
2018-08-17T13:19:02.926Z,23.30
2018-08-17T13:21:31.569Z,22.80
2018-08-17T13:24:00.334Z,23.00
2018-08-17T13:26:29.043Z,22.90
2018-08-17T13:28:57.678Z,22.40
2018-08-17T13:31:26.319Z,22.70
2018-08-17T13:33:55.058Z,22.90
2018-08-17T13:36:29.963Z,22.70
2018-08-17T13:39:02.610Z,22.60
2018-08-17T13:41:31.511Z,22.50
2018-08-17T13:44:00.226Z,22.30
2018-08-17T13:46:29.039Z,22.50
2018-08-17T13:48:57.717Z,22.80
2018-08-17T13:51:26.452Z,23.00
2018-08-17T13:53:55.292Z,22.80
2018-08-17T13:56:24.143Z,23.00
2018-08-17T13:58:52.912Z,23.00
2018-08-17T14:01:21.702Z,23.40
2018-08-17T14:03:50.391Z,24.80
2018-08-17T14:06:19.061Z,25.80
2018-08-17T14:08:47.715Z,25.40
2018-08-17T14:11:16.509Z,24.60
2018-08-17T14:13:46.008Z,23.90
2018-08-17T14:16:19.630Z,23.60
2018-08-17T14:18:58.309Z,23.30
2018-08-17T14:21:35.596Z,23.90
2018-08-17T14:24:04.886Z,22.90
2018-08-17T14:26:33.669Z,22.40
2018-08-17T14:29:02.371Z,21.70
2018-08-17T14:31:31.048Z,22.10
2018-08-17T14:33:59.728Z,21.70
2018-08-17T14:36:28.449Z,21.70
2018-08-17T14:38:57.409Z,22.30
2018-08-17T14:41:26.064Z,22.10
2018-08-17T14:43:54.764Z,21.60
2018-08-17T14:46:23.581Z,21.90
2018-08-17T14:48:52.280Z,21.30
2018-08-17T14:51:20.994Z,21.50
2018-08-17T14:53:49.856Z,22.20
2018-08-17T14:56:18.505Z,23.40
2018-08-17T14:58:47.334Z,25.60
2018-08-17T15:01:16.367Z,26.30
2018-08-17T15:03:45.423Z,25.90
2018-08-17T15:06:14.198Z,27.00
2018-08-17T15:08:45.834Z,27.20
2018-08-17T15:11:14.649Z,27.40
2018-08-17T15:13:43.363Z,27.90
2018-08-17T15:16:12.167Z,28.10
2018-08-17T15:18:40.968Z,27.70
2018-08-17T15:21:10.030Z,27.10
2018-08-17T15:23:38.767Z,27.30
2018-08-17T15:26:09.179Z,27.80
2018-08-17T15:28:38.184Z,27.90
2018-08-17T15:31:08.847Z,28.50
2018-08-17T15:33:37.556Z,28.00
2018-08-17T15:36:06.306Z,28.10
2018-08-17T15:38:35.175Z,27.90
2018-08-17T15:41:03.825Z,27.80
2018-08-17T15:43:33.564Z,28.30
2018-08-17T15:46:02.225Z,28.30
2018-08-17T15:48:38.944Z,28.20
2018-08-17T15:51:10.465Z,28.60
2018-08-17T15:53:39.886Z,28.80
2018-08-17T15:56:09.005Z,28.80
2018-08-17T15:58:37.699Z,29.00
2018-08-17T16:01:08.366Z,29.00
2018-08-17T16:03:39.239Z,29.10
2018-08-17T16:06:09.167Z,28.80
2018-08-17T16:08:37.881Z,28.80
2018-08-17T16:11:07.022Z,29.00
2018-08-17T16:13:35.822Z,28.50
2018-08-17T16:16:04.800Z,28.70
2018-08-17T16:18:33.548Z,28.90
2018-08-17T16:22:32.640Z,29.10
2018-08-17T16:25:01.534Z,29.10
2018-08-17T16:27:30.580Z,29.60
2018-08-17T16:29:59.432Z,29.80
2018-08-17T16:32:28.182Z,30.00
2018-08-17T16:34:56.982Z,29.90
2018-08-17T16:37:25.673Z,30.30
2018-08-17T16:39:55.373Z,30.00
2018-08-17T16:42:33.505Z,30.30
2018-08-17T16:45:02.300Z,30.90
2018-08-17T16:47:31.101Z,31.10
2018-08-17T16:49:59.971Z,31.30
2018-08-17T16:52:28.748Z,31.70
2018-08-17T16:55:00.718Z,31.90
2018-08-17T16:57:29.470Z,32.40
2018-08-17T16:59:58.296Z,32.80
2018-08-17T17:02:27.099Z,32.80
2018-08-17T17:04:55.859Z,32.70
2018-08-17T17:07:29.800Z,33.00
2018-08-17T17:10:01.044Z,33.10
2018-08-17T17:12:30.115Z,33.30
2018-08-17T17:15:32.938Z,33.70
2018-08-17T17:18:06.921Z,34.20
2018-08-17T17:20:43.129Z,34.20
2018-08-17T17:23:14.341Z,34.40
2018-08-17T17:25:45.637Z,34.40
2018-08-17T17:28:14.400Z,34.80
2018-08-17T17:30:47.315Z,34.70
2018-08-17T17:33:16.441Z,34.70
2018-08-17T17:35:45.327Z,34.90
2018-08-17T17:38:14.120Z,34.80
2018-08-17T17:40:43.243Z,34.80
2018-08-17T17:43:12.153Z,34.50
2018-08-17T17:45:41.306Z,35.00
2018-08-17T17:48:10.479Z,35.10
2018-08-17T17:50:41.634Z,35.30
2018-08-17T17:53:10.462Z,35.60
2018-08-17T17:55:44.582Z,35.90
2018-08-17T17:58:13.585Z,36.90
2018-08-17T18:00:51.497Z,37.20
2018-08-17T18:03:20.341Z,38.40
2018-08-17T18:05:49.018Z,37.70
2018-08-17T18:08:20.141Z,38.10
2018-08-17T18:10:49.203Z,39.00
2018-08-17T18:13:17.939Z,39.90
2018-08-17T18:15:46.765Z,39.90
2018-08-17T18:18:15.719Z,41.90
2018-08-17T18:20:44.425Z,41.60
2018-08-17T18:23:13.121Z,42.30
2018-08-17T18:25:42.224Z,42.70
2018-08-17T18:28:11.005Z,43.30
2018-08-17T18:30:40.040Z,42.80
2018-08-17T18:33:08.867Z,43.20
2018-08-17T18:35:37.749Z,43.40
2018-08-17T18:38:06.710Z,43.30
2018-08-17T18:40:35.579Z,43.90
2018-08-17T18:43:04.545Z,44.70
2018-08-17T18:45:33.407Z,44.80
2018-08-17T18:48:02.363Z,45.10
2018-08-17T18:50:33.382Z,45.30
2018-08-17T18:53:02.347Z,45.40
2018-08-17T18:55:31.500Z,45.40
2018-08-17T18:58:00.342Z,45.40
2018-08-17T19:00:29.337Z,45.20
2018-08-17T19:02:59.645Z,46.00
2018-08-17T19:05:34.654Z,46.50
2018-08-17T19:08:03.514Z,46.60
2018-08-17T19:10:32.570Z,46.90
2018-08-17T19:13:01.381Z,46.70
2018-08-17T19:15:34.878Z,46.70
2018-08-17T19:18:03.716Z,46.90
2018-08-17T19:20:32.617Z,46.80
2018-08-17T19:23:01.548Z,46.80
2018-08-17T19:25:30.935Z,46.70
2018-08-17T19:27:59.906Z,47.00
2018-08-17T19:30:33.582Z,46.70
2018-08-17T19:33:07.677Z,46.70
2018-08-17T19:35:36.571Z,46.70
2018-08-17T19:38:05.502Z,46.80
2018-08-17T19:40:34.290Z,46.70
2018-08-17T19:43:02.958Z,46.80
2018-08-17T19:45:37.620Z,46.50
2018-08-17T19:48:08.421Z,46.40
2018-08-17T19:50:37.345Z,46.90
2018-08-17T19:53:06.297Z,47.60
2018-08-17T19:55:36.333Z,48.20
2018-08-17T19:58:05.464Z,48.50
2018-08-17T20:00:34.256Z,48.30
2018-08-17T20:03:07.911Z,48.30
2018-08-17T20:05:36.968Z,48.50
2018-08-17T20:08:05.807Z,48.90
2018-08-17T20:10:41.325Z,48.90
2018-08-17T20:13:15.636Z,49.40
2018-08-17T20:15:44.718Z,49.50
2018-08-17T20:18:13.399Z,48.80
2018-08-17T20:20:42.284Z,49.40
2018-08-17T20:23:11.124Z,50.10
2018-08-17T20:25:41.771Z,49.10
2018-08-17T20:28:10.508Z,49.20
2018-08-17T20:30:41.116Z,49.40
2018-08-17T20:33:15.919Z,49.10
2018-08-17T20:35:45.563Z,48.30
2018-08-17T20:38:14.604Z,48.70
2018-08-17T20:40:43.460Z,49.10
2018-08-17T20:43:12.458Z,49.70
2018-08-17T20:45:41.306Z,49.80
2018-08-17T20:48:10.186Z,50.40
2018-08-17T20:50:39.269Z,50.70
2018-08-17T20:53:08.226Z,50.20
2018-08-17T20:55:36.931Z,51.10
2018-08-17T20:58:05.902Z,50.10
2018-08-17T21:00:34.659Z,51.40
2018-08-17T21:03:03.390Z,51.20
2018-08-17T21:05:32.136Z,51.60
2018-08-17T21:08:00.913Z,51.90
2018-08-17T21:10:29.747Z,53.30
2018-08-17T21:12:58.450Z,52.80
2018-08-17T21:15:27.377Z,51.20
2018-08-17T21:17:56.153Z,52.80
2018-08-17T21:20:24.863Z,52.80
2018-08-17T21:22:53.713Z,52.20
2018-08-17T21:25:23.308Z,51.90
2018-08-17T21:27:52.315Z,52.00
2018-08-17T21:30:20.980Z,52.10
2018-08-17T21:32:49.727Z,52.70
2018-08-17T21:35:18.490Z,53.80
2018-08-17T21:37:47.330Z,54.80
2018-08-17T21:40:21.260Z,55.10
2018-08-17T21:42:49.944Z,56.10
2018-08-17T21:45:23.681Z,55.40
2018-08-17T21:47:57.548Z,55.50
2018-08-17T21:50:26.517Z,56.40
2018-08-17T21:52:55.418Z,56.00
2018-08-17T21:55:24.177Z,55.50
2018-08-17T21:57:52.915Z,56.30
2018-08-17T22:00:36.785Z,56.20
2018-08-17T22:03:40.824Z,55.10
2018-08-17T22:06:09.541Z,56.40
2018-08-17T22:08:38.675Z,56.10
2018-08-17T22:11:07.500Z,56.50
2018-08-17T22:13:36.648Z,56.90
2018-08-17T22:16:05.568Z,56.80
2018-08-17T22:18:34.460Z,57.30
2018-08-17T22:21:03.205Z,57.30
2018-08-17T22:23:31.962Z,58.10
2018-08-17T22:26:00.974Z,57.80
2018-08-17T22:28:29.870Z,58.50
2018-08-17T22:30:58.636Z,58.80
2018-08-17T22:33:27.366Z,58.70
2018-08-17T22:35:56.162Z,59.00
2018-08-17T22:38:26.756Z,59.50
2018-08-17T22:40:55.395Z,59.70
2018-08-17T22:43:24.137Z,60.50
2018-08-17T22:45:53.634Z,60.40
2018-08-17T22:48:22.419Z,60.40
2018-08-17T22:50:51.019Z,60.20
2018-08-17T22:53:19.748Z,60.50
2018-08-17T22:55:48.614Z,60.40
2018-08-17T22:58:17.387Z,60.30
2018-08-17T23:00:46.279Z,60.40
2018-08-17T23:03:15.082Z,61.00
2018-08-17T23:05:43.967Z,61.00
2018-08-17T23:08:12.708Z,61.00
2018-08-17T23:10:41.532Z,60.60
2018-08-17T23:13:10.236Z,61.30
2018-08-17T23:15:39.082Z,62.00
2018-08-17T23:18:07.956Z,62.40
2018-08-17T23:20:37.773Z,62.30
2018-08-17T23:23:07.358Z,62.50
2018-08-17T23:25:38.196Z,62.70
2018-08-17T23:28:07.079Z,63.20
2018-08-17T23:30:35.826Z,63.50
2018-08-17T23:33:05.862Z,62.00
2018-08-17T23:35:34.651Z,63.80
2018-08-17T23:38:03.670Z,63.10
2018-08-17T23:40:32.266Z,63.70
2018-08-17T23:43:01.233Z,64.10
2018-08-17T23:45:30.031Z,63.90
2018-08-17T23:47:58.797Z,64.30
2018-08-17T23:50:27.549Z,64.40
2018-08-17T23:52:56.596Z,64.80
2018-08-17T23:55:25.368Z,65.00
2018-08-17T23:57:54.211Z,64.60
